Airport Name : Davison AAF

Other Name : Davison AAF

ICAO : KDAA

IATA : DAA

FAA : DAA

Latitude : 38.715025

Longitude : -77.181014

Country : United States

Local Date and Time : 01 Dec 2020 13:16

 

TAF (Terminal Aerodrome Forecast)

TAF KDAA 011300Z 0113/0219 29007KT 9999 VCSH BKN030 BKN050 610307 QNH2962INS BECMG 0113/0114 25010G15KT 9999 NSW BKN040 620406 520208 QNH2968INS BECMG 0116/0117 26015G25KT 9999 BKN040 620406 520009 QNH2971INS BECMG 0123/0124 25010G15KT 9999 SCT040 BKN100 QNH2986INS BECMG 0203/0204 VRB06KT 9999 FEW050 QNH2993INS BECMG 0213/0214 26010G15KT 9999 FEW050 520208 QNH3007INS TX08/0116Z TN01/0211Z

 

METAR (METeorological Aerodrome Report)

KDAA 011656Z AUTO 27012G18KT 10SM OVC060 08/M05 A2970 RMK AO2 SLP060 T00821053 $

KDAA 011556Z AUTO 28010KT 10SM BKN050 OVC060 08/M03 A2970 RMK AO2 SLP060 T00811028 $

KDAA 011456Z AUTO 23007KT 10SM FEW095 07/M01 A2969 RMK AO2 SLP057 60000 T00711011 52024 $

To Charter a Jet Click here.